sim
Sign-in with your pilot id or email,
or register
Callsign
Passwort

Schedule Details

Flight Number: DLH2530
Departure: Munich Airport (EDDM) at 19:30
Arrival: Moscow Domodedovo International Airport (UUDD) at 22:35
Route: Lufthansa Passenger Schedule. Enter filed route here before submitting Pirep.

Weather Information
Getting current METAR information for EDDM 282050Z 08003KT CAVOK 09/07 Q1015 NOSIG
Getting current METAR information for UUDD 282030Z 17003MPS 9999 SCT030 11/06 Q1026 R14R/CLRD60 NOSIG

Schedule Frequency

Route Map